createdAt,value
2023-02-08T00:00:43.473Z,9.23
2023-02-08T00:03:00.012Z,9.75
2023-02-08T00:05:16.502Z,9.98
2023-02-08T00:07:32.824Z,9.70
2023-02-08T00:09:49.484Z,9.77
2023-02-08T00:12:05.934Z,9.15
2023-02-08T00:14:22.360Z,9.73
2023-02-08T00:16:39.077Z,9.95
2023-02-08T00:18:55.738Z,9.30
2023-02-08T00:21:12.060Z,8.70
2023-02-08T00:23:28.485Z,9.27
2023-02-08T00:25:44.834Z,8.80
2023-02-08T00:28:03.314Z,9.30
2023-02-08T00:30:20.809Z,9.50
2023-02-08T00:32:37.312Z,8.88
2023-02-08T00:34:53.723Z,9.60
2023-02-08T00:37:10.010Z,8.85
2023-02-08T00:39:26.721Z,8.77
2023-02-08T00:41:43.024Z,8.82
2023-02-08T00:44:00.514Z,9.27
2023-02-08T00:46:17.014Z,9.82
2023-02-08T00:48:33.705Z,10.15
2023-02-08T00:50:50.480Z,9.38
2023-02-08T00:53:06.910Z,10.10
2023-02-08T00:55:23.258Z,10.13
2023-02-08T00:57:39.717Z,9.77
2023-02-08T00:59:56.177Z,8.98
2023-02-08T01:02:12.529Z,9.60
2023-02-08T01:04:29.243Z,9.43
2023-02-08T01:06:45.905Z,10.10
2023-02-08T01:09:02.398Z,10.13
2023-02-08T01:11:18.965Z,9.90
2023-02-08T01:13:36.366Z,10.77
2023-02-08T01:15:53.097Z,10.25
2023-02-08T01:18:09.770Z,9.70
2023-02-08T01:20:26.477Z,10.85
2023-02-08T01:22:43.005Z,10.52
2023-02-08T01:24:59.524Z,10.43
2023-02-08T01:27:16.082Z,10.23
2023-02-08T01:29:33.381Z,9.63
2023-02-08T01:31:53.165Z,9.93
2023-02-08T01:34:12.703Z,9.80
2023-02-08T01:36:31.316Z,10.25
2023-02-08T01:38:47.988Z,9.77
2023-02-08T01:41:04.426Z,9.45
2023-02-08T01:43:20.838Z,10.02
2023-02-08T01:45:37.296Z,9.40
2023-02-08T01:47:53.635Z,9.52
2023-02-08T01:50:09.907Z,9.23
2023-02-08T01:52:26.366Z,9.27
2023-02-08T01:54:42.823Z,9.15
2023-02-08T01:56:59.199Z,10.02
2023-02-08T01:59:15.640Z,9.52
2023-02-08T02:01:31.989Z,9.80
2023-02-08T02:03:48.729Z,9.40
2023-02-08T02:06:05.182Z,9.05
2023-02-08T02:08:21.638Z,10.27
2023-02-08T02:10:38.134Z,8.88
2023-02-08T02:12:55.126Z,9.60
2023-02-08T02:15:11.446Z,9.45
2023-02-08T02:17:28.174Z,9.68
2023-02-08T02:19:44.590Z,9.35
2023-02-08T02:22:01.038Z,9.48
2023-02-08T02:24:17.359Z,9.60
2023-02-08T02:26:33.846Z,9.43
2023-02-08T02:28:50.502Z,9.70
2023-02-08T02:31:07.335Z,9.90
2023-02-08T02:33:23.725Z,9.00
2023-02-08T02:35:40.152Z,9.50
2023-02-08T02:37:56.626Z,9.60
2023-02-08T02:40:12.947Z,9.32
2023-02-08T02:42:29.619Z,8.95
2023-02-08T02:44:46.256Z,9.35
2023-02-08T02:47:03.030Z,9.68
2023-02-08T02:49:19.602Z,9.98
2023-02-08T02:51:36.032Z,9.02
2023-02-08T02:53:52.685Z,8.50
2023-02-08T02:56:09.361Z,9.07
2023-02-08T02:58:25.996Z,9.05
2023-02-08T03:00:42.388Z,9.65
2023-02-08T03:02:58.962Z,9.27
2023-02-08T03:05:15.239Z,8.80
2023-02-08T03:07:31.936Z,9.43
2023-02-08T03:09:48.667Z,9.65
2023-02-08T03:12:05.146Z,9.13
2023-02-08T03:14:21.776Z,9.55
2023-02-08T03:16:38.164Z,9.02
2023-02-08T03:18:54.879Z,9.65
2023-02-08T03:21:11.262Z,9.52
2023-02-08T03:23:27.689Z,10.10
2023-02-08T03:25:44.126Z,9.77
2023-02-08T03:28:00.909Z,9.25
2023-02-08T03:30:17.324Z,9.15
2023-02-08T03:32:33.851Z,9.20
2023-02-08T03:34:50.281Z,8.70
2023-02-08T03:37:06.699Z,9.55
2023-02-08T03:39:23.368Z,9.65
2023-02-08T03:41:39.684Z,9.65
2023-02-08T03:43:56.100Z,8.90
2023-02-08T03:46:12.552Z,9.13
2023-02-08T03:48:29.052Z,9.80
2023-02-08T03:50:45.528Z,8.38
2023-02-08T03:53:01.987Z,9.00
2023-02-08T03:55:18.260Z,9.18
2023-02-08T03:57:34.696Z,9.25
2023-02-08T03:59:51.072Z,8.88
2023-02-08T04:02:07.518Z,8.57
2023-02-08T04:04:23.922Z,9.77
2023-02-08T04:06:40.328Z,9.32
2023-02-08T04:08:56.850Z,8.43
2023-02-08T04:11:13.337Z,8.82
2023-02-08T04:13:29.721Z,8.70
2023-02-08T04:15:46.085Z,8.82
2023-02-08T04:18:02.403Z,10.13
2023-02-08T04:20:18.846Z,9.10
2023-02-08T04:22:35.189Z,9.43
2023-02-08T04:24:51.855Z,10.10
2023-02-08T04:27:08.258Z,9.13
2023-02-08T04:29:24.767Z,9.35
2023-02-08T04:31:41.304Z,9.30
2023-02-08T04:33:57.890Z,9.85
2023-02-08T04:36:14.281Z,9.38
2023-02-08T04:38:30.814Z,9.10
2023-02-08T04:40:48.255Z,8.68
2023-02-08T04:43:04.711Z,8.90
2023-02-08T04:45:21.416Z,8.77
2023-02-08T04:47:37.899Z,8.73
2023-02-08T04:49:54.371Z,9.10
2023-02-08T04:52:11.028Z,8.90
2023-02-08T04:54:27.486Z,9.68
2023-02-08T04:56:44.086Z,9.52
2023-02-08T04:59:00.495Z,8.98
2023-02-08T05:01:17.000Z,9.70
2023-02-08T05:03:33.420Z,9.57
2023-02-08T05:05:49.759Z,9.05
2023-02-08T05:08:06.449Z,8.77
2023-02-08T05:10:22.903Z,8.93
2023-02-08T05:12:39.559Z,9.05
2023-02-08T05:14:56.909Z,8.77
2023-02-08T05:17:13.370Z,9.15
2023-02-08T05:19:29.843Z,8.88
2023-02-08T05:21:46.266Z,9.10
2023-02-08T05:24:03.021Z,9.73
2023-02-08T05:26:19.518Z,9.75
2023-02-08T05:28:35.942Z,9.38
2023-02-08T05:30:52.690Z,9.63
2023-02-08T05:33:09.478Z,9.48
2023-02-08T05:35:25.935Z,9.25
2023-02-08T05:37:42.406Z,9.27
2023-02-08T05:39:58.864Z,9.25
2023-02-08T05:42:15.433Z,9.90
2023-02-08T05:44:31.869Z,8.57
2023-02-08T05:46:48.362Z,9.13
2023-02-08T05:49:05.161Z,9.90
2023-02-08T05:51:21.843Z,9.38
2023-02-08T05:53:38.241Z,9.05
2023-02-08T05:55:54.568Z,9.15
2023-02-08T05:58:10.984Z,10.10
2023-02-08T06:00:27.776Z,9.23
2023-02-08T06:02:44.226Z,9.52
2023-02-08T06:05:00.920Z,10.90
2023-02-08T06:07:17.544Z,10.50
2023-02-08T06:09:33.963Z,10.23
2023-02-08T06:11:50.411Z,10.77
2023-02-08T06:14:07.132Z,11.02
2023-02-08T06:16:23.609Z,10.82
2023-02-08T06:18:39.984Z,10.93
2023-02-08T06:20:56.688Z,10.60
2023-02-08T06:23:13.185Z,10.77
2023-02-08T06:25:29.701Z,9.98
2023-02-08T06:27:46.440Z,10.00
2023-02-08T06:30:02.964Z,10.02
2023-02-08T06:32:19.738Z,9.75
2023-02-08T06:34:36.097Z,9.93
2023-02-08T06:36:52.429Z,10.57
2023-02-08T06:39:08.864Z,10.27
2023-02-08T06:41:25.216Z,10.35
2023-02-08T06:43:41.499Z,10.27
2023-02-08T06:45:58.095Z,9.88
2023-02-08T06:48:14.587Z,11.32
2023-02-08T06:50:33.450Z,10.23
2023-02-08T06:52:49.892Z,11.48
2023-02-08T06:55:06.373Z,10.27
2023-02-08T06:57:22.769Z,11.02
2023-02-08T06:59:39.489Z,10.45
2023-02-08T07:01:55.827Z,10.20
2023-02-08T07:04:12.580Z,9.65
2023-02-08T07:06:29.249Z,10.32
2023-02-08T07:08:45.727Z,10.20
2023-02-08T07:11:02.173Z,10.20
2023-02-08T07:13:18.897Z,9.93
2023-02-08T07:15:35.400Z,10.55
2023-02-08T07:17:51.879Z,10.05
2023-02-08T07:20:08.242Z,9.70
2023-02-08T07:22:24.802Z,9.60
2023-02-08T07:24:41.140Z,10.05
2023-02-08T07:26:57.811Z,9.95
2023-02-08T07:29:15.043Z,9.60
2023-02-08T07:31:31.800Z,10.18
2023-02-08T07:33:48.518Z,10.80
2023-02-08T07:36:05.084Z,9.55
2023-02-08T07:38:21.611Z,11.48
2023-02-08T07:40:38.484Z,10.57
2023-02-08T07:42:55.333Z,10.60
2023-02-08T07:45:11.781Z,10.57
2023-02-08T07:47:28.531Z,11.00
2023-02-08T07:49:44.916Z,12.52
2023-02-08T07:52:01.372Z,13.23
2023-02-08T07:54:17.707Z,12.55
2023-02-08T07:56:34.369Z,12.82
2023-02-08T07:58:50.864Z,12.82
2023-02-08T08:01:21.082Z,13.00
2023-02-08T08:03:38.913Z,15.82
2023-02-08T08:05:55.283Z,14.63
2023-02-08T08:08:11.726Z,14.77
2023-02-08T08:10:28.398Z,15.02
2023-02-08T08:12:44.871Z,14.90
2023-02-08T08:15:01.300Z,15.15
2023-02-08T08:17:17.843Z,13.80
2023-02-08T08:19:34.175Z,14.65
2023-02-08T08:21:51.007Z,14.07
2023-02-08T08:24:07.759Z,14.70
2023-02-08T08:26:24.473Z,13.88
2023-02-08T08:28:40.863Z,13.93
2023-02-08T08:30:57.778Z,14.02
2023-02-08T08:33:14.266Z,15.57
2023-02-08T08:35:31.009Z,13.65
2023-02-08T08:37:47.308Z,13.05
2023-02-08T08:40:03.879Z,12.05
2023-02-08T08:42:20.305Z,10.05
2023-02-08T08:44:36.609Z,8.95
2023-02-08T08:46:53.268Z,9.57
2023-02-08T08:49:09.583Z,9.82
2023-02-08T08:51:25.966Z,9.25
2023-02-08T08:53:42.677Z,9.32
2023-02-08T08:55:59.052Z,10.05
2023-02-08T08:58:15.375Z,8.02
2023-02-08T09:00:31.840Z,9.50
2023-02-08T09:02:48.471Z,9.77
2023-02-08T09:05:04.918Z,9.60
2023-02-08T09:07:21.399Z,8.88
2023-02-08T09:09:37.762Z,9.82
2023-02-08T09:11:54.279Z,8.93
2023-02-08T09:14:10.743Z,8.80
2023-02-08T09:16:27.125Z,8.85
2023-02-08T09:18:43.570Z,9.45
2023-02-08T09:21:00.132Z,9.85
2023-02-08T09:23:16.751Z,9.38
2023-02-08T09:25:33.085Z,9.07
2023-02-08T09:27:49.529Z,9.13
2023-02-08T09:30:06.002Z,9.63
2023-02-08T09:32:22.537Z,9.43
2023-02-08T09:34:39.032Z,9.23
2023-02-08T09:36:55.703Z,8.77
2023-02-08T09:39:12.159Z,9.55
2023-02-08T09:41:28.779Z,8.82
2023-02-08T09:43:45.487Z,9.18
2023-02-08T09:46:02.009Z,9.05
2023-02-08T09:48:18.554Z,9.77
2023-02-08T09:50:35.366Z,9.32
2023-02-08T09:52:51.799Z,9.27
2023-02-08T09:55:08.187Z,9.65
2023-02-08T09:57:24.540Z,9.45
2023-02-08T09:59:40.958Z,8.88
2023-02-08T10:01:57.435Z,9.07
2023-02-08T10:04:14.170Z,9.35
2023-02-08T10:06:30.560Z,9.70
2023-02-08T10:08:46.998Z,9.35
2023-02-08T10:11:03.935Z,9.02
2023-02-08T10:13:21.474Z,9.68
2023-02-08T10:15:40.684Z,9.15
2023-02-08T10:17:58.201Z,8.88
2023-02-08T10:20:14.960Z,9.77
2023-02-08T10:22:31.646Z,9.77
2023-02-08T10:24:48.049Z,9.18
2023-02-08T10:27:04.800Z,9.02
2023-02-08T10:29:21.297Z,9.88
2023-02-08T10:31:37.949Z,9.75
2023-02-08T10:33:54.792Z,9.32
2023-02-08T10:36:11.225Z,9.32
2023-02-08T10:38:37.152Z,9.23
2023-02-08T10:41:01.082Z,9.00
2023-02-08T10:43:17.834Z,9.50
2023-02-08T10:45:34.271Z,12.23
2023-02-08T10:47:51.029Z,9.82
2023-02-08T10:50:07.482Z,9.18
2023-02-08T10:52:24.140Z,9.57
2023-02-08T10:54:41.661Z,8.50
2023-02-08T10:56:58.249Z,8.80
2023-02-08T10:59:14.660Z,9.05
2023-02-08T11:01:31.276Z,8.52
2023-02-08T11:03:47.720Z,10.30
2023-02-08T11:06:04.451Z,8.45
2023-02-08T11:08:20.916Z,9.07
2023-02-08T11:10:37.643Z,8.75
2023-02-08T11:12:54.300Z,8.50
2023-02-08T11:15:10.605Z,7.97
2023-02-08T11:17:26.963Z,8.68
2023-02-08T11:19:43.313Z,8.65
2023-02-08T11:22:00.026Z,8.60
2023-02-08T11:24:16.528Z,8.45
2023-02-08T11:26:33.270Z,8.32
2023-02-08T11:28:49.619Z,8.50
2023-02-08T11:31:06.038Z,7.53
2023-02-08T11:33:22.356Z,8.27
2023-02-08T11:35:38.838Z,8.93
2023-02-08T11:37:55.379Z,8.57
2023-02-08T11:40:11.885Z,8.93
2023-02-08T11:42:28.509Z,8.85
2023-02-08T11:44:44.911Z,7.97
2023-02-08T11:47:01.278Z,7.85
2023-02-08T11:49:17.993Z,8.15
2023-02-08T11:51:34.357Z,7.93
2023-02-08T11:53:50.788Z,8.60
2023-02-08T11:56:07.194Z,8.23
2023-02-08T11:58:23.528Z,7.95
2023-02-08T12:00:40.004Z,8.10
2023-02-08T12:02:56.730Z,7.40
2023-02-08T12:05:13.421Z,7.70
2023-02-08T12:07:30.182Z,8.30
2023-02-08T12:09:46.543Z,9.00
2023-02-08T12:12:03.300Z,8.40
2023-02-08T12:14:19.769Z,7.93
2023-02-08T12:16:36.278Z,8.18
2023-02-08T12:18:53.830Z,8.43
2023-02-08T12:21:10.596Z,8.45
2023-02-08T12:23:26.952Z,7.97
2023-02-08T12:25:43.642Z,7.95
2023-02-08T12:28:00.300Z,7.80
2023-02-08T12:30:16.737Z,8.05
2023-02-08T12:32:33.243Z,8.25
2023-02-08T12:34:49.964Z,8.23
2023-02-08T12:37:06.462Z,8.23
2023-02-08T12:39:25.375Z,7.30
2023-02-08T12:41:42.372Z,7.63
2023-02-08T12:43:58.792Z,8.30
2023-02-08T12:46:15.540Z,11.23
2023-02-08T12:48:32.220Z,9.55
2023-02-08T12:50:49.000Z,10.57
2023-02-08T12:53:05.425Z,9.13
2023-02-08T12:55:21.962Z,9.40
2023-02-08T12:57:38.345Z,10.80
2023-02-08T12:59:55.047Z,8.30
2023-02-08T13:02:11.876Z,8.68
2023-02-08T13:04:28.341Z,8.50
2023-02-08T13:06:44.780Z,7.95
2023-02-08T13:09:01.320Z,8.23
2023-02-08T13:11:20.310Z,8.73
2023-02-08T13:13:37.280Z,17.13
2023-02-08T13:15:53.633Z,8.70
2023-02-08T13:18:10.390Z,17.23
2023-02-08T13:20:26.833Z,11.82
2023-02-08T13:22:43.289Z,10.80
2023-02-08T13:25:08.579Z,9.07
2023-02-08T13:27:25.507Z,8.55
2023-02-08T13:29:42.441Z,8.57
2023-02-08T13:31:59.229Z,8.52
2023-02-08T13:34:15.982Z,8.73
2023-02-08T13:36:32.519Z,7.97
2023-02-08T13:38:49.009Z,8.38
2023-02-08T13:41:05.341Z,7.68
2023-02-08T13:43:34.298Z,7.47
2023-02-08T13:45:52.365Z,9.20
2023-02-08T13:48:09.178Z,9.05
2023-02-08T13:50:27.704Z,8.32
2023-02-08T13:52:48.381Z,8.07
2023-02-08T13:55:06.401Z,9.63
2023-02-08T13:57:22.773Z,7.80
2023-02-08T13:59:39.344Z,7.88
2023-02-08T14:01:55.924Z,8.15
2023-02-08T14:04:12.685Z,8.18
2023-02-08T14:06:29.133Z,8.23
2023-02-08T14:08:45.458Z,7.78
2023-02-08T14:11:02.950Z,11.52
2023-02-08T14:13:19.625Z,7.97
2023-02-08T14:15:36.113Z,7.65
2023-02-08T14:17:52.465Z,7.50
2023-02-08T14:20:09.184Z,7.43
2023-02-08T14:22:25.971Z,7.53
2023-02-08T14:24:42.713Z,7.13
2023-02-08T14:26:59.039Z,8.63
2023-02-08T14:29:15.372Z,7.60
2023-02-08T14:31:32.175Z,7.32
2023-02-08T14:33:48.988Z,7.80
2023-02-08T14:36:05.585Z,7.50
2023-02-08T14:38:22.021Z,8.95
2023-02-08T14:40:38.420Z,8.63
2023-02-08T14:42:54.898Z,7.78
2023-02-08T14:45:11.621Z,7.85
2023-02-08T14:47:28.322Z,7.78
2023-02-08T14:49:44.861Z,7.15
2023-02-08T14:52:01.600Z,8.30
2023-02-08T14:54:18.135Z,7.15
2023-02-08T14:56:34.918Z,11.35
2023-02-08T14:58:51.754Z,9.43
2023-02-08T15:01:08.486Z,8.93
2023-02-08T15:03:24.774Z,8.10
2023-02-08T15:05:41.476Z,7.80
2023-02-08T15:07:58.484Z,8.15
2023-02-08T15:10:14.957Z,8.07
2023-02-08T15:12:31.731Z,7.72
2023-02-08T15:14:48.481Z,8.38
2023-02-08T15:17:05.010Z,8.52
2023-02-08T15:19:21.785Z,8.30
2023-02-08T15:21:38.140Z,7.85
2023-02-08T15:23:54.527Z,8.40
2023-02-08T15:26:11.022Z,7.97
2023-02-08T15:28:27.683Z,8.25
2023-02-08T15:30:44.333Z,7.75
2023-02-08T15:33:01.003Z,7.68
2023-02-08T15:35:17.497Z,8.25
2023-02-08T15:37:33.825Z,8.60
2023-02-08T15:39:50.463Z,8.70
2023-02-08T15:42:06.757Z,8.75
2023-02-08T15:44:23.277Z,8.00
2023-02-08T15:46:39.714Z,7.72
2023-02-08T15:48:56.344Z,7.93
2023-02-08T15:51:12.994Z,8.70
2023-02-08T15:53:29.677Z,7.07
2023-02-08T15:55:46.123Z,8.10
2023-02-08T15:58:02.417Z,9.07
2023-02-08T16:00:18.933Z,8.43
2023-02-08T16:02:35.328Z,8.93
2023-02-08T16:04:51.973Z,9.50
2023-02-08T16:07:08.488Z,9.57
2023-02-08T16:09:25.075Z,10.02
2023-02-08T16:11:41.573Z,9.90
2023-02-08T16:13:58.067Z,9.77
2023-02-08T16:16:14.459Z,9.90
2023-02-08T16:18:30.811Z,9.40
2023-02-08T16:20:47.602Z,9.50
2023-02-08T16:23:04.192Z,8.80
2023-02-08T16:25:20.700Z,8.75
2023-02-08T16:27:36.963Z,9.13
2023-02-08T16:29:53.762Z,8.95
2023-02-08T16:32:13.606Z,8.75
2023-02-08T16:34:30.447Z,8.10
2023-02-08T16:36:47.139Z,7.70
2023-02-08T16:39:03.482Z,8.15
2023-02-08T16:41:20.243Z,8.25
2023-02-08T16:43:36.999Z,8.05
2023-02-08T16:45:53.491Z,7.60
2023-02-08T16:48:18.492Z,8.27
2023-02-08T16:50:35.664Z,8.45
2023-02-08T16:52:52.041Z,7.90
2023-02-08T16:55:08.624Z,8.40
2023-02-08T16:57:25.164Z,8.07
2023-02-08T16:59:41.542Z,8.45
2023-02-08T17:01:58.246Z,7.97
2023-02-08T17:04:14.729Z,8.52
2023-02-08T17:06:31.259Z,9.13
2023-02-08T17:08:48.400Z,9.20
2023-02-08T17:11:04.819Z,8.75
2023-02-08T17:13:21.553Z,8.80
2023-02-08T17:15:38.050Z,9.55
2023-02-08T17:17:54.374Z,9.85
2023-02-08T17:20:11.108Z,9.70
2023-02-08T17:22:27.545Z,9.75
2023-02-08T17:24:44.315Z,9.68
2023-02-08T17:27:00.752Z,9.88
2023-02-08T17:29:17.538Z,9.95
2023-02-08T17:31:34.311Z,9.10
2023-02-08T17:33:51.047Z,9.10
2023-02-08T17:36:07.523Z,9.68
2023-02-08T17:38:23.995Z,8.65
2023-02-08T17:40:40.716Z,8.35
2023-02-08T17:42:57.243Z,8.27
2023-02-08T17:45:13.946Z,8.48
2023-02-08T17:47:30.741Z,8.73
2023-02-08T17:49:47.221Z,8.43
2023-02-08T17:52:04.001Z,8.45
2023-02-08T17:54:20.534Z,8.40
2023-02-08T17:56:37.075Z,8.07
2023-02-08T17:58:54.102Z,8.00
2023-02-08T18:01:10.985Z,8.02
2023-02-08T18:03:27.468Z,8.10
2023-02-08T18:05:43.812Z,8.10
2023-02-08T18:08:00.458Z,8.05
2023-02-08T18:10:16.816Z,8.35
2023-02-08T18:12:33.491Z,8.13
2023-02-08T18:14:49.993Z,8.45
2023-02-08T18:17:07.764Z,8.82
2023-02-08T18:19:24.449Z,8.88
2023-02-08T18:21:40.897Z,9.05
2023-02-08T18:23:57.209Z,8.00
2023-02-08T18:26:13.700Z,8.88
2023-02-08T18:28:30.263Z,8.48
2023-02-08T18:30:46.795Z,8.55
2023-02-08T18:33:03.259Z,9.57
2023-02-08T18:35:20.009Z,9.35
2023-02-08T18:37:36.785Z,8.65
2023-02-08T18:39:53.508Z,9.43
2023-02-08T18:42:10.122Z,8.70
2023-02-08T18:44:26.869Z,9.55
2023-02-08T18:46:43.274Z,9.23
2023-02-08T18:48:59.619Z,8.68
2023-02-08T18:51:16.317Z,8.73
2023-02-08T18:53:32.621Z,8.57
2023-02-08T18:55:49.387Z,9.23
2023-02-08T18:58:06.181Z,10.23
2023-02-08T19:00:22.898Z,10.65
2023-02-08T19:02:39.789Z,11.00
2023-02-08T19:04:56.443Z,13.02
2023-02-08T19:07:12.916Z,12.63
2023-02-08T19:09:30.408Z,12.60
2023-02-08T19:11:49.354Z,12.13
2023-02-08T19:14:05.962Z,11.75
2023-02-08T19:16:22.881Z,10.93
2023-02-08T19:18:39.432Z,11.27
2023-02-08T19:20:56.222Z,10.70
2023-02-08T19:23:12.703Z,10.85
2023-02-08T19:25:29.234Z,10.63
2023-02-08T19:27:45.691Z,11.27
2023-02-08T19:30:02.222Z,11.23
2023-02-08T19:32:18.919Z,11.48
2023-02-08T19:34:35.702Z,12.05
2023-02-08T19:36:52.144Z,11.27
2023-02-08T19:39:08.514Z,11.00
2023-02-08T19:41:24.928Z,10.55
2023-02-08T19:43:41.306Z,11.20
2023-02-08T19:45:57.674Z,10.32
2023-02-08T19:48:14.367Z,10.48
2023-02-08T19:50:31.089Z,11.13
2023-02-08T19:52:47.461Z,10.10
2023-02-08T19:55:03.894Z,10.73
2023-02-08T19:57:20.257Z,9.70
2023-02-08T19:59:36.977Z,10.10
2023-02-08T20:01:53.481Z,10.30
2023-02-08T20:04:09.999Z,9.88
2023-02-08T20:06:26.387Z,9.70
2023-02-08T20:08:42.888Z,10.57
2023-02-08T20:10:59.546Z,10.18
2023-02-08T20:13:15.969Z,10.98
2023-02-08T20:15:32.445Z,10.77
2023-02-08T20:17:48.993Z,10.77
2023-02-08T20:20:05.687Z,9.90
2023-02-08T20:22:22.030Z,11.23
2023-02-08T20:24:38.760Z,11.98
2023-02-08T20:26:55.435Z,12.10
2023-02-08T20:29:11.805Z,12.20
2023-02-08T20:31:28.635Z,12.15
2023-02-08T20:33:45.099Z,11.80
2023-02-08T20:36:01.814Z,12.20
2023-02-08T20:38:18.553Z,12.73
2023-02-08T20:40:34.862Z,10.88
2023-02-08T20:42:51.136Z,10.90
2023-02-08T20:45:07.625Z,10.88
2023-02-08T20:47:24.292Z,9.93
2023-02-08T20:49:40.639Z,9.95
2023-02-08T20:51:57.354Z,10.25
2023-02-08T20:54:14.070Z,10.85
2023-02-08T20:56:30.348Z,10.20
2023-02-08T20:58:46.931Z,9.73
2023-02-08T21:01:03.585Z,9.80
2023-02-08T21:03:19.966Z,10.60
2023-02-08T21:05:36.314Z,9.95
2023-02-08T21:07:52.589Z,9.95
2023-02-08T21:10:09.236Z,9.68
2023-02-08T21:12:25.894Z,10.48
2023-02-08T21:14:42.614Z,9.30
2023-02-08T21:16:59.428Z,9.85
2023-02-08T21:19:16.166Z,9.70
2023-02-08T21:21:32.501Z,9.75
2023-02-08T21:23:49.105Z,9.23
2023-02-08T21:26:05.738Z,10.40
2023-02-08T21:28:22.334Z,9.65
2023-02-08T21:30:39.098Z,9.85
2023-02-08T21:32:55.496Z,9.75
2023-02-08T21:35:11.765Z,9.65
2023-02-08T21:37:28.168Z,9.02
2023-02-08T21:39:46.552Z,9.43
2023-02-08T21:42:03.749Z,9.52
2023-02-08T21:44:20.066Z,9.77
2023-02-08T21:46:36.705Z,10.32
2023-02-08T21:48:53.172Z,10.35
2023-02-08T21:51:09.578Z,10.13
2023-02-08T21:53:26.288Z,10.85
2023-02-08T21:55:42.974Z,10.13
2023-02-08T21:57:59.447Z,10.07
2023-02-08T22:00:15.851Z,10.18
2023-02-08T22:02:33.247Z,10.05
2023-02-08T22:04:49.545Z,9.77
2023-02-08T22:07:06.237Z,9.63
2023-02-08T22:09:22.909Z,9.77
2023-02-08T22:11:39.199Z,9.75
2023-02-08T22:13:55.518Z,9.68
2023-02-08T22:16:11.961Z,9.57
2023-02-08T22:18:28.438Z,9.20
2023-02-08T22:20:45.372Z,9.80
2023-02-08T22:23:02.177Z,8.85
2023-02-08T22:25:18.906Z,9.65
2023-02-08T22:27:36.324Z,9.73
2023-02-08T22:29:53.091Z,9.20
2023-02-08T22:34:51.915Z,8.75
2023-02-08T22:37:08.600Z,9.18
2023-02-08T22:39:24.925Z,9.85
2023-02-08T22:41:41.260Z,10.10
2023-02-08T22:43:57.804Z,10.25
2023-02-08T22:46:14.169Z,11.40
2023-02-08T22:48:30.914Z,11.55
2023-02-08T22:50:47.637Z,11.32
2023-02-08T22:53:04.060Z,10.65
2023-02-08T22:55:20.508Z,10.98
2023-02-08T22:57:36.753Z,11.48
2023-02-08T22:59:53.260Z,11.10
2023-02-08T23:02:09.797Z,10.75
2023-02-08T23:04:26.455Z,11.00
2023-02-08T23:06:42.944Z,10.32
2023-02-08T23:08:59.381Z,9.90
2023-02-08T23:11:15.844Z,10.30
2023-02-08T23:13:32.504Z,10.32
2023-02-08T23:15:49.222Z,10.55
2023-02-08T23:18:05.719Z,10.77
2023-02-08T23:20:22.067Z,9.95
2023-02-08T23:22:38.511Z,10.30
2023-02-08T23:24:55.026Z,10.00
2023-02-08T23:27:11.345Z,10.30
2023-02-08T23:29:27.800Z,10.10
2023-02-08T23:31:44.313Z,10.20
2023-02-08T23:34:00.985Z,10.27
2023-02-08T23:36:17.421Z,9.98
2023-02-08T23:38:33.897Z,10.23
2023-02-08T23:40:50.493Z,9.90
2023-02-08T23:43:07.108Z,9.55
2023-02-08T23:45:23.845Z,10.02
2023-02-08T23:47:40.571Z,9.68
2023-02-08T23:49:57.255Z,9.38
2023-02-08T23:52:13.520Z,9.98
2023-02-08T23:54:29.821Z,10.70
2023-02-08T23:56:46.584Z,9.52
2023-02-08T23:59:03.020Z,9.60
